Observation data for Pampa on 02/14/2020      Previous  Date  Next       Current Mesonet Observations  Soil Data  Daily Summary Page  Observations in Plain Language
KPMS 140600Z 11008KT M07/M11 A303 RMK A01 T10651106  RH  073%=      5-min Rain = 0
KPMS 140605Z 11007KT M06/M10 A303 RMK A01 T10641104  RH  073%=      5-min Rain = 0
KPMS 140610Z 11008KT M06/M11 A303 RMK A01 T10641106  RH  072%=      5-min Rain = 0
KPMS 140615Z 11008KT M06/M11 A303 RMK A01 T10641105  RH  073%=      5-min Rain = 0
KPMS 140620Z 10008KT M06/M10 A303 RMK A01 T10641104  RH  073%=      5-min Rain = 0
KPMS 140625Z 10009KT M06/M10 A303 RMK A01 T10641104  RH  073%=      5-min Rain = 0
KPMS 140630Z 10008KT M06/M10 A303 RMK A01 T10641104  RH  073%=      5-min Rain = 0
KPMS 140635Z 10008KT M07/M10 A303 RMK A01 T10651103  RH  074%=      5-min Rain = 0
KPMS 140640Z 11008KT M07/M11 A303 RMK A01 T10661105  RH  074%=      5-min Rain = 0
KPMS 140645Z 11007KT M07/M11 A303 RMK A01 T10681105  RH  074%=      5-min Rain = 0
KPMS 140650Z 10007KT M07/M11 A303 RMK A01 T10701106  RH  075%=      5-min Rain = 0
KPMS 140655Z 11007KT M07/M11 A303 RMK A01 T10721106  RH  076%=      5-min Rain = 0
KPMS 140700Z 11008KT M07/M11 A303 RMK A01 T10721109  RH  074%=      5-min Rain = 0
KPMS 140705Z 10007KT M07/M11 A303 RMK A01 T10731111  RH  074%=      5-min Rain = 0
KPMS 140710Z 11007KT M08/M11 A303 RMK A01 T10751110  RH  075%=      5-min Rain = 0
KPMS 140715Z 11006KT M08/M11 A303 RMK A01 T10761111  RH  076%=      5-min Rain = 0
KPMS 140720Z 11006KT M08/M11 A303 RMK A01 T10761111  RH  076%=      5-min Rain = 0
KPMS 140725Z 12007KT M08/M11 A303 RMK A01 T10771111  RH  076%=      5-min Rain = 0
KPMS 140730Z 11006KT M08/M11 A303 RMK A01 T10781110  RH  077%=      5-min Rain = 0
KPMS 140735Z 11005KT M08/M11 A303 RMK A01 T10801108  RH  080%=      5-min Rain = 0
KPMS 140740Z 11005KT M08/M11 A303 RMK A01 T10811106  RH  082%=      5-min Rain = 0
KPMS 140745Z 11005KT M08/M11 A3031 RMK A01 T10811107  RH  081%=      5-min Rain = 0
KPMS 140750Z 10004KT M08/M11 A3031 RMK A01 T10821107  RH  082%=      5-min Rain = 0
KPMS 140755Z 11004KT M08/M11 A3031 RMK A01 T10831105  RH  084%=      5-min Rain = 0
KPMS 140800Z 12004KT M08/M10 A3031 RMK A01 T10831103  RH  085%=      5-min Rain = 0
KPMS 140805Z 12003KT M08/M10 A3031 RMK A01 T10821101  RH  085%=      5-min Rain = 0
KPMS 140810Z 12004KT M08/M10 A3031 RMK A01 T10811101  RH  085%=      5-min Rain = 0
KPMS 140815Z 12005KT M08/M10 A3031 RMK A01 T10811102  RH  084%=      5-min Rain = 0
KPMS 140820Z 12004KT M08/M10 A3031 RMK A01 T10801102  RH  084%=      5-min Rain = 0
KPMS 140825Z 13005KT M08/M10 A3031 RMK A01 T10801101  RH  084%=      5-min Rain = 0
KPMS 140830Z 13005KT M08/M10 A3031 RMK A01 T10791100  RH  085%=      5-min Rain = 0
KPMS 140835Z 12006KT M08/M10 A3031 RMK A01 T10781099  RH  085%=      5-min Rain = 0
KPMS 140840Z 13006KT M08/M10 A3031 RMK A01 T10791101  RH  084%=      5-min Rain = 0
KPMS 140845Z 12007KT M08/M10 A3031 RMK A01 T10781099  RH  085%=      5-min Rain = 0
KPMS 140850Z 13007KT M08/M10 A3031 RMK A01 T10791101  RH  084%=      5-min Rain = 0
KPMS 140855Z 12006KT M08/M10 A3031 RMK A01 T10791100  RH  085%=      5-min Rain = 0
KPMS 140900Z 12006KT M08/M10 A3031 RMK A01 T10781098  RH  086%=      5-min Rain = 0
KPMS 140905Z 12007KT M08/M10 A303 RMK A01 T10791100  RH  085%=      5-min Rain = 0
KPMS 140910Z 12006KT M08/M10 A3031 RMK A01 T10811101  RH  085%=      5-min Rain = 0
KPMS 140915Z 13006KT M08/M10 A3031 RMK A01 T10811102  RH  085%=      5-min Rain = 0
KPMS 140920Z 12005KT M08/M10 A303 RMK A01 T10811103  RH  084%=      5-min Rain = 0
KPMS 140925Z 13006KT M08/M10 A303 RMK A01 T10821102  RH  085%=      5-min Rain = 0
KPMS 140930Z 13006KT M08/M10 A303 RMK A01 T10821103  RH  085%=      5-min Rain = 0
KPMS 140935Z 13006KT M08/M10 A303 RMK A01 T10821103  RH  084%=      5-min Rain = 0
KPMS 140940Z 13005KT M08/M10 A303 RMK A01 T10821104  RH  084%=      5-min Rain = 0
KPMS 140945Z 13005KT M08/M10 A303 RMK A01 T10831104  RH  084%=      5-min Rain = 0
KPMS 140950Z 13005KT M08/M10 A303 RMK A01 T10831104  RH  084%=      5-min Rain = 0
KPMS 140955Z 14004KT M08/M10 A303 RMK A01 T10821103  RH  085%=      5-min Rain = 0
KPMS 141000Z 15005KT M08/M10 A303 RMK A01 T10821102  RH  085%=      5-min Rain = 0
KPMS 141005Z 15006KT M08/M10 A303 RMK A01 T10821102  RH  085%=      5-min Rain = 0
KPMS 141010Z 15006KT M08/M10 A303 RMK A01 T10821104  RH  084%=      5-min Rain = 0
KPMS 141015Z 14005KT M08/M10 A303 RMK A01 T10811103  RH  084%=      5-min Rain = 0
KPMS 141020Z 14006KT M08/M10 A303 RMK A01 T10811102  RH  084%=      5-min Rain = 0
KPMS 141025Z 14007KT M08/M10 A3029 RMK A01 T10811102  RH  084%=      5-min Rain = 0
KPMS 141030Z 15007KT M08/M10 A3029 RMK A01 T10811102  RH  084%=      5-min Rain = 0
KPMS 141035Z 14007KT M08/M10 A3029 RMK A01 T10811103  RH  084%=      5-min Rain = 0
KPMS 141040Z 14006KT M08/M10 A3029 RMK A01 T10811101  RH  085%=      5-min Rain = 0
KPMS 141045Z 14007KT M08/M10 A3029 RMK A01 T10811100  RH  086%=      5-min Rain = 0
KPMS 141050Z 14007KT M08/M10 A3029 RMK A01 T10811099  RH  087%=      5-min Rain = 0
KPMS 141055Z 13006KT M08/M10 A3029 RMK A01 T10811098  RH  087%=      5-min Rain = 0
KPMS 141100Z 13006KT M08/M10 A3029 RMK A01 T10811099  RH  087%=      5-min Rain = 0
KPMS 141105Z 14006KT M08/M10 A3029 RMK A01 T10811099  RH  087%=      5-min Rain = 0
KPMS 141110Z 14006KT M08/M10 A3029 RMK A01 T10811098  RH  087%=      5-min Rain = 0
KPMS 141115Z 14007KT M08/M10 A3029 RMK A01 T10811099  RH  087%=      5-min Rain = 0
KPMS 141120Z 14007KT M08/M10 A3029 RMK A01 T10821100  RH  087%=      5-min Rain = 0
KPMS 141125Z 15006KT M08/M10 A3029 RMK A01 T10811100  RH  086%=      5-min Rain = 0
KPMS 141130Z 14007KT M08/M10 A3029 RMK A01 T10821100  RH  087%=      5-min Rain = 0
KPMS 141135Z 15007KT M08/M10 A3029 RMK A01 T10841101  RH  087%=      5-min Rain = 0
KPMS 141140Z 15007KT M08/M10 A3029 RMK A01 T10841100  RH  088%=      5-min Rain = 0
KPMS 141145Z 15006KT M09/M10 A3029 RMK A01 T10851101  RH  088%=      5-min Rain = 0
KPMS 141150Z 15007KT M09/M10 A3029 RMK A01 T10861100  RH  089%=      5-min Rain = 0
KPMS 141155Z 15007KT M09/M10 A3029 RMK A01 T10871100  RH  089%=      5-min Rain = 0
KPMS 141200Z 15007KT M09/M10 A3029 RMK A01 T10871100  RH  090%=      5-min Rain = 0
KPMS 141205Z 15007KT M09/M10 A3029 RMK A01 T10871100  RH  091%=      5-min Rain = 0
KPMS 141210Z 15007KT M09/M10 A3029 RMK A01 T10871098  RH  091%=      5-min Rain = 0
KPMS 141215Z 16007KT M09/M10 A3029 RMK A01 T10861097  RH  092%=      5-min Rain = 0
KPMS 141220Z 15007KT M09/M10 A3029 RMK A01 T10851096  RH  092%=      5-min Rain = 0
KPMS 141225Z 15007KT M08/M10 A3029 RMK A01 T10841095  RH  091%=      5-min Rain = 0
KPMS 141230Z 15007KT M08/M09 A3029 RMK A01 T10821094  RH  091%=      5-min Rain = 0
KPMS 141235Z 15008KT M08/M10 A3028 RMK A01 T10821096  RH  090%=      5-min Rain = 0
KPMS 141240Z 15008KT M08/M10 A3028 RMK A01 T10821097  RH  089%=      5-min Rain = 0
KPMS 141245Z 15008KT M08/M10 A3028 RMK A01 T10811098  RH  087%=      5-min Rain = 0
KPMS 141250Z 15008KT M08/M10 A3028 RMK A01 T10811098  RH  087%=      5-min Rain = 0
KPMS 141255Z 16009KT M08/M10 A3028 RMK A01 T10811099  RH  086%=      5-min Rain = 0
KPMS 141300Z 16009KT M08/M10 A3028 RMK A01 T10801099  RH  086%=      5-min Rain = 0
KPMS 141305Z 15011KT M08/M10 A3028 RMK A01 T10811101  RH  085%=      5-min Rain = 0
KPMS 141310Z 15009KT M08/M10 A3028 RMK A01 T10801099  RH  086%=      5-min Rain = 0
KPMS 141315Z 15009KT M08/M10 A3028 RMK A01 T10801098  RH  086%=      5-min Rain = 0
KPMS 141320Z 15010KT M08/M10 A3028 RMK A01 T10801099  RH  086%=      5-min Rain = 0
KPMS 141325Z 16010KT M08/M10 A3029 RMK A01 T10791100  RH  085%=      5-min Rain = 0
KPMS 141330Z 15010KT M08/M10 A3028 RMK A01 T10791101  RH  084%=      5-min Rain = 0
KPMS 141335Z 16010KT M08/M10 A3028 RMK A01 T10791101  RH  084%=      5-min Rain = 0
KPMS 141340Z 16009KT M08/M10 A3028 RMK A01 T10781100  RH  084%=      5-min Rain = 0
KPMS 141345Z 16012KT M08/M10 A3028 RMK A01 T10781104  RH  081%=      5-min Rain = 0
KPMS 141350Z 16011KT M08/M11 A3029 RMK A01 T10781108  RH  079%=      5-min Rain = 0
KPMS 141355Z 16011KT M08/M11 A3029 RMK A01 T10771106  RH  079%=      5-min Rain = 0
KPMS 141400Z 16012KT M08/M11 A3028 RMK A01 T10771106  RH  079%=      5-min Rain = 0
KPMS 141405Z 17011KT M08/M11 A3028 RMK A01 T10761106  RH  078%=      5-min Rain = 0
KPMS 141410Z 17010KT M07/M11 A3029 RMK A01 T10741106  RH  078%=      5-min Rain = 0
KPMS 141415Z 17010KT M07/M11 A3029 RMK A01 T10741106  RH  077%=      5-min Rain = 0
KPMS 141420Z 16012KT M07/M11 A3029 RMK A01 T10741107  RH  076%=      5-min Rain = 0
KPMS 141425Z 17012KT M07/M11 A3029 RMK A01 T10731108  RH  076%=      5-min Rain = 0
KPMS 141430Z 17012KT M07/M11 A3029 RMK A01 T10731108  RH  076%=      5-min Rain = 0
KPMS 141435Z 17012KT M07/M11 A3029 RMK A01 T10721107  RH  076%=      5-min Rain = 0
KPMS 141440Z 17010KT M07/M11 A303 RMK A01 T10711107  RH  075%=      5-min Rain = 0
KPMS 141445Z 17012KT M07/M11 A3029 RMK A01 T10691105  RH  075%=      5-min Rain = 0
KPMS 141450Z 17012KT M07/M10 A3029 RMK A01 T10671104  RH  075%=      5-min Rain = 0
KPMS 141455Z 17012KT M07/M10 A3029 RMK A01 T10671104  RH  074%=      5-min Rain = 0
KPMS 141500Z 17010KT M07/M10 A3029 RMK A01 T10651102  RH  075%=      5-min Rain = 0
KPMS 141505Z 18011KT M06/M10 A3029 RMK A01 T10631101  RH  074%=      5-min Rain = 0
KPMS 141510Z 18011KT M06/M10 A3029 RMK A01 T10621101  RH  074%=      5-min Rain = 0
KPMS 141515Z 18011KT M06/M10 A3029 RMK A01 T10601098  RH  074%=      5-min Rain = 0
KPMS 141520Z 17012G17KT M06/M10 A3029 RMK A01 T10591098  RH  074%=      5-min Rain = 0
KPMS 141525Z 18011KT M06/M10 A3029 RMK A01 T10581098  RH  073%=      5-min Rain = 0
KPMS 141530Z 18012KT M06/M10 A303 RMK A01 T10581098  RH  073%=      5-min Rain = 0
KPMS 141535Z 17012KT M06/M10 A303 RMK A01 T10571097  RH  073%=      5-min Rain = 0
KPMS 141540Z 17010KT M06/M09 A303 RMK A01 T10551094  RH  074%=      5-min Rain = 0
KPMS 141545Z 18012KT M05/M10 A3029 RMK A01 T10541095  RH  073%=      5-min Rain = 0
KPMS 141550Z 18014KT M06/M10 A303 RMK A01 T10551096  RH  072%=      5-min Rain = 0
KPMS 141555Z 18012KT M06/M09 A3029 RMK A01 T10551094  RH  074%=      5-min Rain = 0
KPMS 141600Z 18013KT M05/M09 A3029 RMK A01 T10521091  RH  074%=      5-min Rain = 0
KPMS 141605Z 18012G18KT M05/M09 A3029 RMK A01 T10521090  RH  074%=      5-min Rain = 0
KPMS 141610Z 18012G17KT M05/M09 A3029 RMK A01 T10491087  RH  075%=      5-min Rain = 0
KPMS 141615Z 18013G18KT M05/M09 A3028 RMK A01 T10491086  RH  075%=      5-min Rain = 0
KPMS 141620Z 18013G18KT M05/M08 A3028 RMK A01 T10471084  RH  075%=      5-min Rain = 0
KPMS 141625Z 18014G19KT M05/M08 A3028 RMK A01 T10481084  RH  076%=      5-min Rain = 0
KPMS 141630Z 18015KT M05/M08 A3028 RMK A01 T10471081  RH  077%=      5-min Rain = 0
KPMS 141635Z 19014G20KT M04/M08 A3028 RMK A01 T10441078  RH  078%=      5-min Rain = 0
KPMS 141640Z 19016G21KT M04/M08 A3028 RMK A01 T10441076  RH  079%=      5-min Rain = 0
KPMS 141645Z 18015G20KT M05/M08 A3028 RMK A01 T10461076  RH  080%=      5-min Rain = 0
KPMS 141650Z 19016G21KT M05/M08 A3028 RMK A01 T10451076  RH  079%=      5-min Rain = 0
KPMS 141655Z 18014G19KT M05/M08 A3028 RMK A01 T10451075  RH  080%=      5-min Rain = 0
KPMS 141700Z 18015G20KT M04/M07 A3028 RMK A01 T10421074  RH  078%=      5-min Rain = 0
KPMS 141705Z 18014G20KT M04/M07 A3027 RMK A01 T10401073  RH  078%=      5-min Rain = 0
KPMS 141710Z 18014G20KT M04/M07 A3027 RMK A01 T10411073  RH  079%=      5-min Rain = 0
KPMS 141715Z 18014G19KT M04/M07 A3027 RMK A01 T10401072  RH  079%=      5-min Rain = 0
KPMS 141720Z 18015KT M04/M07 A3027 RMK A01 T10401070  RH  079%=      5-min Rain = 0
KPMS 141725Z 18015KT M04/M07 A3026 RMK A01 T10371067  RH  080%=      5-min Rain = 0
KPMS 141730Z 18016KT M04/M07 A3026 RMK A01 T10371067  RH  080%=      5-min Rain = 0
KPMS 141735Z 18016G21KT M04/M07 A3026 RMK A01 T10361066  RH  080%=      5-min Rain = 0
KPMS 141740Z 18015G20KT M03/M07 A3025 RMK A01 T10341066  RH  079%=      5-min Rain = 0
KPMS 141745Z 19015KT M03/M06 A3025 RMK A01 T10321064  RH  079%=      5-min Rain = 0
KPMS 141750Z 18016G21KT M03/M07 A3025 RMK A01 T10321065  RH  078%=      5-min Rain = 0
KPMS 141755Z 18015G21KT M03/M06 A3025 RMK A01 T10301064  RH  078%=      5-min Rain = 0
KPMS 141800Z 18015G20KT M03/M06 A3024 RMK A01 T10261063  RH  076%=      5-min Rain = 0
KPMS 141805Z 19016G21KT M03/M06 A3024 RMK A01 T10261063  RH  076%=      5-min Rain = 0
KPMS 141810Z 19016KT M02/M06 A3023 RMK A01 T10241061  RH  076%=      5-min Rain = 0
KPMS 141815Z 19017G23KT M02/M06 A3022 RMK A01 T10221058  RH  076%=      5-min Rain = 0
KPMS 141820Z 19016KT M02/M06 A3022 RMK A01 T10191056  RH  076%=      5-min Rain = 0
KPMS 141825Z 20016G22KT M02/M06 A3022 RMK A01 T10181057  RH  074%=      5-min Rain = 0
KPMS 141830Z 19017G22KT M02/M06 A3021 RMK A01 T10151055  RH  075%=      5-min Rain = 0
KPMS 141835Z 19015G20KT M01/M05 A3021 RMK A01 T10121054  RH  074%=      5-min Rain = 0
KPMS 141840Z 19017G22KT M01/M06 A3021 RMK A01 T10121055  RH  073%=      5-min Rain = 0
KPMS 141845Z 20017G22KT M01/M06 A302 RMK A01 T10121055  RH  073%=      5-min Rain = 0
KPMS 141850Z 19015G23KT M01/M05 A302 RMK A01 T10081051  RH  073%=      5-min Rain = 0
KPMS 141855Z 20017G22KT M01/M05 A302 RMK A01 T10081052  RH  072%=      5-min Rain = 0
KPMS 141900Z 18017G23KT M01/M05 A3019 RMK A01 T10071053  RH  072%=      5-min Rain = 0
KPMS 141905Z 19018G23KT M01/M05 A3019 RMK A01 T10061051  RH  072%=      5-min Rain = 0
KPMS 141910Z 19016G23KT M00/M05 A3019 RMK A01 T10031048  RH  072%=      5-min Rain = 0
KPMS 141915Z 20017G23KT M00/M05 A3018 RMK A01 T10021048  RH  071%=      5-min Rain = 0
KPMS 141920Z 19016G21KT 00/M05 A3018 RMK A01 T00011048  RH  070%=      5-min Rain = 0
KPMS 141925Z 19017G22KT M00/M05 A3018 RMK A01 T10011049  RH  071%=      5-min Rain = 0
KPMS 141930Z 20017G22KT 00/05 A3017 RMK A01 T00-00-47  RH  071%=      5-min Rain = 0
KPMS 141935Z 19015G21KT 00/M05 A3017 RMK A01 T00031045  RH  070%=      5-min Rain = 0
KPMS 141940Z 19017KT 00/M05 A3017 RMK A01 T00011046  RH  071%=      5-min Rain = 0
KPMS 141945Z 19015KT 01/M04 A3016 RMK A01 T00061043  RH  070%=      5-min Rain = 0
KPMS 141950Z 19016G21KT 01/M04 A3016 RMK A01 T00071042  RH  070%=      5-min Rain = 0
KPMS 141955Z 19015G20KT 01/M04 A3015 RMK A01 T00081041  RH  070%=      5-min Rain = 0
KPMS 142000Z 19015G20KT 01/M04 A3015 RMK A01 T00101040  RH  069%=      5-min Rain = 0
KPMS 142005Z 19016G22KT 01/M04 A3015 RMK A01 T00101039  RH  070%=      5-min Rain = 0
KPMS 142010Z 19015G21KT 01/M04 A3015 RMK A01 T00131038  RH  069%=      5-min Rain = 0
KPMS 142015Z 18018G25KT 01/M04 A3014 RMK A01 T00101041  RH  069%=      5-min Rain = 0
KPMS 142020Z 19018G25KT 01/M04 A3014 RMK A01 T00091039  RH  071%=      5-min Rain = 0
KPMS 142025Z 18016G23KT 01/M04 A3013 RMK A01 T00131037  RH  070%=      5-min Rain = 0
KPMS 142030Z 18017G24KT 01/M04 A3013 RMK A01 T00141037  RH  070%=      5-min Rain = 0
KPMS 142035Z 18019G25KT 01/M04 A3013 RMK A01 T00111037  RH  071%=      5-min Rain = 0
KPMS 142040Z 18019G25KT 01/M04 A3013 RMK A01 T00141036  RH  070%=      5-min Rain = 0
KPMS 142045Z 19018G24KT 01/M04 A3013 RMK A01 T00131037  RH  070%=      5-min Rain = 0
KPMS 142050Z 19019G24KT 01/M04 A3012 RMK A01 T00141035  RH  070%=      5-min Rain = 0
KPMS 142055Z 19018G24KT 02/M04 A3012 RMK A01 T00151035  RH  070%=      5-min Rain = 0
KPMS 142100Z 18018G24KT 02/M03 A3012 RMK A01 T00161033  RH  070%=      5-min Rain = 0
KPMS 142105Z 19019G25KT 01/M03 A3011 RMK A01 T00141034  RH  071%=      5-min Rain = 0
KPMS 142110Z 19019G24KT 02/M03 A3011 RMK A01 T00161033  RH  071%=      5-min Rain = 0
KPMS 142115Z 18016G24KT 02/M03 A3011 RMK A01 T00181032  RH  070%=      5-min Rain = 0
KPMS 142120Z 18018G23KT 02/M03 A3011 RMK A01 T00181032  RH  070%=      5-min Rain = 0
KPMS 142125Z 18019G24KT 01/M04 A3011 RMK A01 T00111036  RH  071%=      5-min Rain = 0
KPMS 142130Z 18019G25KT 01/M03 A301 RMK A01 T00101033  RH  073%=      5-min Rain = 0
KPMS 142135Z 18019G25KT 02/M03 A301 RMK A01 T00161031  RH  071%=      5-min Rain = 0
KPMS 142140Z 18020G27KT 02/M03 A3009 RMK A01 T00151032  RH  071%=      5-min Rain = 0
KPMS 142145Z 18021G27KT 01/M03 A3009 RMK A01 T00141031  RH  072%=      5-min Rain = 0
KPMS 142150Z 18020G28KT 02/M03 A3009 RMK A01 T00181028  RH  072%=      5-min Rain = 0
KPMS 142155Z 18020G26KT 01/M03 A3009 RMK A01 T00091032  RH  074%=      5-min Rain = 0
KPMS 142200Z 19021G26KT 01/M03 A3009 RMK A01 T00091029  RH  077%=      5-min Rain = 0
KPMS 142205Z 18019G26KT 01/M03 A3009 RMK A01 T00111028  RH  076%=      5-min Rain = 0
KPMS 142210Z 18021G27KT 02/M03 A3008 RMK A01 T00151025  RH  075%=      5-min Rain = 0
KPMS 142215Z 18021KT 02/M02 A3008 RMK A01 T00191024  RH  074%=      5-min Rain = 0
KPMS 142220Z 18018G25KT 02/M03 A3008 RMK A01 T00211025  RH  072%=      5-min Rain = 0
KPMS 142225Z 19018G25KT 02/M02 A3008 RMK A01 T00241023  RH  072%=      5-min Rain = 0
KPMS 142230Z 18019G27KT 02/M02 A3008 RMK A01 T00241022  RH  072%=      5-min Rain = 0
KPMS 142235Z 19020G28KT 02/M02 A3008 RMK A01 T00191021  RH  075%=      5-min Rain = 0
KPMS 142240Z 18019G26KT 02/M02 A3008 RMK A01 T00191020  RH  076%=      5-min Rain = 0
KPMS 142245Z 19021G27KT 02/M02 A3007 RMK A01 T00191020  RH  076%=      5-min Rain = 0
KPMS 142250Z 19020G27KT 02/M02 A3007 RMK A01 T00201019  RH  076%=      5-min Rain = 0
KPMS 142255Z 19018G25KT 02/M02 A3007 RMK A01 T00211018  RH  076%=      5-min Rain = 0
KPMS 142300Z 18020G25KT 02/M02 A3007 RMK A01 T00201020  RH  075%=      5-min Rain = 0
KPMS 142305Z 19019G24KT 02/M02 A3007 RMK A01 T00181019  RH  077%=      5-min Rain = 0
KPMS 142310Z 19021G26KT 02/M02 A3007 RMK A01 T00151020  RH  078%=      5-min Rain = 0
KPMS 142315Z 19019G27KT 01/M02 A3007 RMK A01 T00131021  RH  079%=      5-min Rain = 0
KPMS 142320Z 18022G28KT 01/M02 A3007 RMK A01 T00131021  RH  079%=      5-min Rain = 0
KPMS 142325Z 19021G28KT 01/M02 A3007 RMK A01 T00111021  RH  080%=      5-min Rain = 0
KPMS 142330Z 19020G26KT 01/M02 A3007 RMK A01 T00101021  RH  080%=      5-min Rain = 0
KPMS 142335Z 19019G25KT 01/M02 A3006 RMK A01 T00081022  RH  081%=      5-min Rain = 0
KPMS 142340Z 19019G25KT 01/M02 A3006 RMK A01 T00051022  RH  082%=      5-min Rain = 0
KPMS 142345Z 18019G26KT 00/M02 A3006 RMK A01 T00041022  RH  083%=      5-min Rain = 0
KPMS 142350Z 19019G24KT 00/M02 A3006 RMK A01 T00031023  RH  084%=      5-min Rain = 0
KPMS 142355Z 18018G23KT 00/M02 A3006 RMK A01 T00021023  RH  084%=      5-min Rain = 0
KPMS 150000Z 18019G26KT 00/M02 A3006 RMK A01 T00011022  RH  085%=      5-min Rain = 0
KPMS 150005Z 19019G24KT 00/02 A3006 RMK A01 T00000-23  RH  085%=      5-min Rain = 0
KPMS 150010Z 18016G21KT M00/M02 A3006 RMK A01 T10011023  RH  086%=      5-min Rain = 0
KPMS 150015Z 18017G25KT M00/M02 A3006 RMK A01 T10011023  RH  086%=      5-min Rain = 0
KPMS 150020Z 18017G23KT M00/M02 A3006 RMK A01 T10021023  RH  086%=      5-min Rain = 0
KPMS 150025Z 18017KT M00/M02 A3006 RMK A01 T10021023  RH  087%=      5-min Rain = 0
KPMS 150030Z 18016G22KT M00/M02 A3006 RMK A01 T10041023  RH  087%=      5-min Rain = 0
KPMS 150035Z 18016G21KT M00/M02 A3006 RMK A01 T10041023  RH  088%=      5-min Rain = 0
KPMS 150040Z 18017KT M01/M02 A3006 RMK A01 T10051023  RH  088%=      5-min Rain = 0
KPMS 150045Z 18018G24KT M01/M02 A3005 RMK A01 T10051023  RH  089%=      5-min Rain = 0
KPMS 150050Z 18017G24KT M01/M02 A3005 RMK A01 T10061023  RH  089%=      5-min Rain = 0
KPMS 150055Z 18017G23KT M01/M02 A3005 RMK A01 T10061022  RH  090%=      5-min Rain = 0
KPMS 150100Z 18017G23KT M01/M02 A3005 RMK A01 T10071022  RH  090%=      5-min Rain = 0
KPMS 150105Z 18018G24KT M01/M02 A3005 RMK A01 T10071022  RH  090%=      5-min Rain = 0
KPMS 150110Z 18017G24KT M01/M02 A3005 RMK A01 T10071022  RH  090%=      5-min Rain = 0
KPMS 150115Z 18017G23KT M01/M02 A3005 RMK A01 T10071022  RH  091%=      5-min Rain = 0
KPMS 150120Z 18016KT M01/M02 A3006 RMK A01 T10071022  RH  091%=      5-min Rain = 0
KPMS 150125Z 18015G21KT M01/M02 A3006 RMK A01 T10081021  RH  091%=      5-min Rain = 0
KPMS 150130Z 18016G23KT M01/M02 A3006 RMK A01 T10081021  RH  091%=      5-min Rain = 0
KPMS 150135Z 18017G23KT M01/M02 A3006 RMK A01 T10071020  RH  092%=      5-min Rain = 0
KPMS 150140Z 18018G26KT M01/M02 A3006 RMK A01 T10071019  RH  092%=      5-min Rain = 0
KPMS 150145Z 18020G27KT M00/M02 A3006 RMK A01 T10031016  RH  092%=      5-min Rain = 0
KPMS 150150Z 18019G26KT M00/M02 A3005 RMK A01 T10021015  RH  092%=      5-min Rain = 0
KPMS 150155Z 18019G26KT M00/M02 A3005 RMK A01 T10021015  RH  091%=      5-min Rain = 0
KPMS 150200Z 18021G30KT M00/M02 A3005 RMK A01 T10011015  RH  091%=      5-min Rain = 0
KPMS 150205Z 18020G29KT 00/01 A3005 RMK A01 T00-00-14  RH  091%=      5-min Rain = 0
KPMS 150210Z 19021G28KT 00/01 A3005 RMK A01 T00-00-14  RH  091%=      5-min Rain = 0
KPMS 150215Z 19022G30KT 00/M01 A3005 RMK A01 T00011013  RH  091%=      5-min Rain = 0
KPMS 150220Z 19023G31KT 00/M01 A3006 RMK A01 T00011013  RH  091%=      5-min Rain = 0
KPMS 150225Z 19023G34KT 00/M01 A3006 RMK A01 T00011014  RH  091%=      5-min Rain = 0
KPMS 150230Z 19021G29KT 00/M01 A3006 RMK A01 T00011013  RH  091%=      5-min Rain = 0
KPMS 150235Z 19019G26KT 00/02 A3006 RMK A01 T00-00-15  RH  091%=      5-min Rain = 0
KPMS 150240Z 18017G23KT M00/M02 A3006 RMK A01 T10021016  RH  092%=      5-min Rain = 0
KPMS 150245Z 18017G25KT M00/M02 A3006 RMK A01 T10031016  RH  092%=      5-min Rain = 0
KPMS 150250Z 18016G21KT M00/M02 A3006 RMK A01 T10031016  RH  092%=      5-min Rain = 0
KPMS 150255Z 18016G23KT M00/M02 A3006 RMK A01 T10031015  RH  092%=      5-min Rain = 0
KPMS 150300Z 18017KT M00/M02 A3006 RMK A01 T10031015  RH  092%=      5-min Rain = 0
KPMS 150305Z 18016G22KT M00/M02 A3006 RMK A01 T10041016  RH  093%=      5-min Rain = 0
KPMS 150310Z 18018KT M00/M01 A3005 RMK A01 T10021014  RH  092%=      5-min Rain = 0
KPMS 150315Z 18019G25KT M00/M02 A3005 RMK A01 T10021015  RH  092%=      5-min Rain = 0
KPMS 150320Z 18018G23KT M00/M02 A3005 RMK A01 T10021015  RH  092%=      5-min Rain = 0
KPMS 150325Z 19019G26KT M00/M02 A3005 RMK A01 T10021015  RH  092%=      5-min Rain = 0
KPMS 150330Z 19020G26KT M00/M01 A3005 RMK A01 T10021014  RH  092%=      5-min Rain = 0
KPMS 150335Z 19021G28KT 00/01 A3004 RMK A01 T00000-13  RH  092%=      5-min Rain = 0
KPMS 150340Z 19020G29KT 00/M01 A3004 RMK A01 T00011013  RH  092%=      5-min Rain = 0
KPMS 150345Z 19021G29KT 00/M01 A3004 RMK A01 T00021012  RH  092%=      5-min Rain = 0
KPMS 150350Z 19020G28KT 00/M01 A3004 RMK A01 T00021011  RH  092%=      5-min Rain = 0
KPMS 150355Z 18019G28KT 00/M01 A3004 RMK A01 T00031011  RH  092%=      5-min Rain = 0
KPMS 150400Z 18020G27KT 00/M01 A3004 RMK A01 T00041009  RH  092%=      5-min Rain = 0
KPMS 150405Z 19019G25KT 00/M01 A3004 RMK A01 T00041009  RH  092%=      5-min Rain = 0
KPMS 150410Z 19018G25KT 00/M01 A3004 RMK A01 T00041009  RH  092%=      5-min Rain = 0
KPMS 150415Z 19017G25KT 01/M01 A3004 RMK A01 T00051008  RH  092%=      5-min Rain = 0
KPMS 150420Z 19019G24KT 01/M01 A3004 RMK A01 T00071007  RH  092%=      5-min Rain = 0
KPMS 150425Z 19019G26KT 01/M01 A3004 RMK A01 T00081006  RH  092%=      5-min Rain = 0
KPMS 150430Z 19018G25KT 01/M01 A3004 RMK A01 T00071006  RH  092%=      5-min Rain = 0
KPMS 150435Z 19020G27KT 01/M00 A3004 RMK A01 T00091004  RH  092%=      5-min Rain = 0
KPMS 150440Z 19020G25KT 01/M00 A3004 RMK A01 T00111003  RH  091%=      5-min Rain = 0
KPMS 150445Z 19020G28KT 01/M00 A3004 RMK A01 T00131002  RH  091%=      5-min Rain = 0
KPMS 150450Z 19020G26KT 02/M00 A3004 RMK A01 T00151001  RH  091%=      5-min Rain = 0
KPMS 150455Z 19020G26KT 02/00 A3004 RMK A01 T00160000  RH  090%=      5-min Rain = 0
KPMS 150500Z 19018G25KT 02/00 A3004 RMK A01 T00170001  RH  090%=      5-min Rain = 0
KPMS 150505Z 19016G22KT 02/00 A3004 RMK A01 T00150000  RH  091%=      5-min Rain = 0
KPMS 150510Z 19016G22KT 02/00 A3004 RMK A01 T00150000  RH  091%=      5-min Rain = 0
KPMS 150515Z 19015G20KT 01/M00 A3004 RMK A01 T00131001  RH  092%=      5-min Rain = 0
KPMS 150520Z 19017G22KT 01/00 A3004 RMK A01 T00140001  RH  092%=      5-min Rain = 0
KPMS 150525Z 19017G22KT 02/00 A3004 RMK A01 T00150001  RH  092%=      5-min Rain = 0
KPMS 150530Z 19017G22KT 01/00 A3003 RMK A01 T00140001  RH  092%=      5-min Rain = 0
KPMS 150535Z 19017G23KT 01/00 A3003 RMK A01 T00140001  RH  092%=      5-min Rain = 0
KPMS 150540Z 19017G23KT 02/00 A3003 RMK A01 T00150002  RH  092%=      5-min Rain = 0
KPMS 150545Z 19016KT 02/00 A3003 RMK A01 T00150002  RH  092%=      5-min Rain = 0
KPMS 150550Z 19016KT 02/00 A3003 RMK A01 T00150002  RH  092%=      5-min Rain = 0
KPMS 150555Z 20015KT 02/00 A3003 RMK A01 T00160003  RH  092%=      5-min Rain = 0

Page generated in 0.0092 seconds.